Flood From: 18-02-2018 16:00 Until: 19-02-2018 16:00 warning for: Flood Level: Yellow info button

Although rather usual in this region, locally or potentially dangerous phenomena are expected. (such as local winds, summer thunderstorms, rising streams or high waves) Be aware and pay attention to the latest weather updates, especially if you carry out activities exposed to weather or close to a stream or shoreline. 


Meteo18 Weather Cam more information Meteo18 Weather Cam


Thunder radar more information blitzortung!


Rain radar more information rain snow radar


Visit our other weather sites:

Template documentation
and downloads

And another site



Weather Underground History page Text

Daily Summary for January 22, 2018 Units:  Both    English   Metric
« Previous Day
Next Day »
Daily Weekly Monthly Yearly Custom
  High: Low: Average:
Temperature: TemperatureC °F /  -17.8 °C 8.0 °F /  -13.3 °C 10.6 °F /  -11.9 °C
Dew Point: DewpointC °F /  -17.8 °C 5.9 °F /  -14.5 °C 9.5 °F /  -12.5 °C
Humidity: Humidity % 78 % 93 %
Wind Speed: WindSpeedKMH mph /  0 km/h - 16.2 mph /  26.1 km/h
Wind Gust: WindSpeedGustKMH mph /  0 km/h - -
Wind:- - West
Pressure: PressurehPa in /  0 hPa 1013.4 in /  34313.7 hPa -
Precipitation: 7.9 in /  200.66 mm    
Historical Graphs
 
 
Tabular Data for January 22, 2018
Time Temperature Dew Point Pressure Wind Wind Speed Wind Gust Humidity Rainfall Rate (Hourly)
TemperatureC °F /  -17.8 °C DewpointC °F /  -17.8 °C PressurehPa in /  0 hPa Calm     Humidity % HourlyPrecipMM in /  0 mm
00:08 10.4 °F /  -12 °C 9.5 °F /  -12.5 °C 1016.1 in /  34405.1 hPa West 14.3 mph /  23 km/h 22.5 mph /  36.2 km/h 94 % 0.3 in /  7.62 mm
00:14 10.4 °F /  -12 °C 9.5 °F /  -12.5 °C 1016.1 in /  34405.1 hPa WSW 20.9 mph /  33.6 km/h 20.9 mph /  33.6 km/h 94 % 0.3 in /  7.62 mm
00:26 10.4 °F /  -12 °C 9.6 °F /  -12.4 °C 1016.5 in /  34418.7 hPa South 9.7 mph /  15.6 km/h 29.0 mph /  46.7 km/h 95 % 0.5 in /  12.7 mm
00:38 10.4 °F /  -12 °C 9.6 °F /  -12.4 °C 1016.1 in /  34405.1 hPa WSW 9.7 mph /  15.6 km/h 25.7 mph /  41.4 km/h 95 % 0.5 in /  12.7 mm
00:44 10.3 °F /  -12.1 °C 9.5 °F /  -12.5 °C 1016.1 in /  34405.1 hPa West 16.3 mph /  26.2 km/h 25.7 mph /  41.4 km/h 95 % 0.5 in /  12.7 mm
00:50 10.3 °F /  -12.1 °C 9.5 °F /  -12.5 °C 1016.1 in /  34405.1 hPa WSW 14.3 mph /  23 km/h 22.5 mph /  36.2 km/h 95 % 0.5 in /  12.7 mm
00:56 10.3 °F /  -12.1 °C 9.5 °F /  -12.5 °C 1016.1 in /  34405.1 hPa WSW 24.1 mph /  38.8 km/h 30.6 mph /  49.2 km/h 95 % 0.8 in /  20.32 mm
01:02 10.3 °F /  -12.1 °C 9.7 °F /  -12.4 °C 1016.1 in /  34405.1 hPa WSW 19.5 mph /  31.4 km/h 27.4 mph /  44.1 km/h 96 % 1.0 in /  25.4 mm
01:08 10.3 °F /  -12.1 °C 9.7 °F /  -12.4 °C 1015.8 in /  34395 hPa WNW 22.7 mph /  36.5 km/h 32.2 mph /  51.8 km/h 96 % 1.3 in /  33.02 mm
01:14 10.3 °F /  -12.1 °C 9.7 °F /  -12.4 °C 1016.1 in /  34405.1 hPa SSW 14.3 mph /  23 km/h 22.5 mph /  36.2 km/h 96 % 1.3 in /  33.02 mm
01:20 10.3 °F /  -12.1 °C 9.7 °F /  -12.4 °C 1016.1 in /  34405.1 hPa WSW 14.3 mph /  23 km/h 25.7 mph /  41.4 km/h 96 % 1.5 in /  38.1 mm
01:26 10.3 °F /  -12.1 °C 9.7 °F /  -12.4 °C 1016.1 in /  34405.1 hPa West 13.0 mph /  20.9 km/h 29.0 mph /  46.7 km/h 96 % 1.3 in /  33.02 mm
01:32 10.2 °F /  -12.1 °C 9.6 °F /  -12.4 °C 1015.8 in /  34395 hPa West 16.3 mph /  26.2 km/h 25.7 mph /  41.4 km/h 96 % 1.3 in /  33.02 mm
01:38 10.3 °F /  -12.1 °C 9.7 °F /  -12.4 °C 1015.8 in /  34395 hPa WSW 17.7 mph /  28.5 km/h 35.4 mph /  57 km/h 96 % 1.3 in /  33.02 mm
01:44 10.3 °F /  -12.1 °C 9.7 °F /  -12.4 °C 1015.8 in /  34395 hPa WSW 22.7 mph /  36.5 km/h 30.6 mph /  49.2 km/h 96 % 1.3 in /  33.02 mm
01:50 10.3 °F /  -12.1 °C 9.7 °F /  -12.4 °C 1015.8 in /  34395 hPa WSW 20.9 mph /  33.6 km/h 25.7 mph /  41.4 km/h 96 % 1.0 in /  25.4 mm
01:56 10.3 °F /  -12.1 °C 9.7 °F /  -12.4 °C 1015.8 in /  34395 hPa West 20.9 mph /  33.6 km/h 30.6 mph /  49.2 km/h 96 % 0.8 in /  20.32 mm
02:02 10.3 °F /  -12.1 °C 9.7 °F /  -12.4 °C 1015.8 in /  34395 hPa West 22.7 mph /  36.5 km/h 25.7 mph /  41.4 km/h 96 % 0.8 in /  20.32 mm
02:08 10.3 °F /  -12.1 °C 9.7 °F /  -12.4 °C 1015.8 in /  34395 hPa West 24.1 mph /  38.8 km/h 24.1 mph /  38.8 km/h 96 % 0.5 in /  12.7 mm
02:14 10.3 °F /  -12.1 °C 9.7 °F /  -12.4 °C 1015.8 in /  34395 hPa West 13.0 mph /  20.9 km/h 22.5 mph /  36.2 km/h 96 % 0.5 in /  12.7 mm
02:20 10.3 °F /  -12.1 °C 9.7 °F /  -12.4 °C 1015.8 in /  34395 hPa WSW 24.1 mph /  38.8 km/h 27.4 mph /  44.1 km/h 96 % 0.5 in /  12.7 mm
02:26 10.3 °F /  -12.1 °C 9.7 °F /  -12.4 °C 1015.8 in /  34395 hPa WSW 17.7 mph /  28.5 km/h 24.1 mph /  38.8 km/h 96 % 0.5 in /  12.7 mm
02:32 10.4 °F /  -12 °C 9.8 °F /  -12.3 °C 1016.1 in /  34405.1 hPa WSW 11.1 mph /  17.9 km/h 27.4 mph /  44.1 km/h 96 % 0.5 in /  12.7 mm
02:38 10.4 °F /  -12 °C 9.8 °F /  -12.3 °C 1016.1 in /  34405.1 hPa WSW 13.0 mph /  20.9 km/h 27.4 mph /  44.1 km/h 96 % 0.5 in /  12.7 mm
02:44 10.4 °F /  -12 °C 9.8 °F /  -12.3 °C 1016.1 in /  34405.1 hPa West 16.3 mph /  26.2 km/h 25.7 mph /  41.4 km/h 96 % 0.5 in /  12.7 mm
02:50 10.4 °F /  -12 °C 9.8 °F /  -12.3 °C 1016.1 in /  34405.1 hPa SW 11.1 mph /  17.9 km/h 17.7 mph /  28.5 km/h 96 % 0.5 in /  12.7 mm
02:56 10.4 °F /  -12 °C 9.8 °F /  -12.3 °C 1016.1 in /  34405.1 hPa West 9.7 mph /  15.6 km/h 22.5 mph /  36.2 km/h 96 % 0.5 in /  12.7 mm
03:02 10.5 °F /  -11.9 °C 9.9 °F /  -12.3 °C 1016.1 in /  34405.1 hPa West 28.8 mph /  46.3 km/h 29.0 mph /  46.7 km/h 96 % 0.3 in /  7.62 mm
03:08 10.5 °F /  -11.9 °C 9.9 °F /  -12.3 °C 1016.1 in /  34405.1 hPa WSW 9.7 mph /  15.6 km/h 25.7 mph /  41.4 km/h 96 % 0.5 in /  12.7 mm
03:14 10.6 °F /  -11.9 °C 10.0 °F /  -12.2 °C 1016.1 in /  34405.1 hPa West 16.3 mph /  26.2 km/h 24.1 mph /  38.8 km/h 96 % 0.5 in /  12.7 mm
03:20 10.6 °F /  -11.9 °C 10.0 °F /  -12.2 °C 1016.1 in /  34405.1 hPa WSW 11.1 mph /  17.9 km/h 16.1 mph /  25.9 km/h 96 % 0.5 in /  12.7 mm
03:26 10.6 °F /  -11.9 °C 10.0 °F /  -12.2 °C 1016.1 in /  34405.1 hPa SSW 7.9 mph /  12.7 km/h 25.7 mph /  41.4 km/h 96 % 0.5 in /  12.7 mm
03:32 10.6 °F /  -11.9 °C 10.0 °F /  -12.2 °C 1015.8 in /  34395 hPa West 19.5 mph /  31.4 km/h 24.1 mph /  38.8 km/h 96 % 0.5 in /  12.7 mm
03:50 10.7 °F /  -11.8 °C 10.1 °F /  -12.2 °C 1015.8 in /  34395 hPa West 20.9 mph /  33.6 km/h 22.5 mph /  36.2 km/h 96 % 1.0 in /  25.4 mm
03:56 10.7 °F /  -11.8 °C 10.1 °F /  -12.2 °C 1015.8 in /  34395 hPa West 19.5 mph /  31.4 km/h 25.7 mph /  41.4 km/h 96 % 1.0 in /  25.4 mm
04:02 10.7 °F /  -11.8 °C 10.1 °F /  -12.2 °C 1015.8 in /  34395 hPa West 13.0 mph /  20.9 km/h 27.4 mph /  44.1 km/h 96 % 1.3 in /  33.02 mm
04:08 10.7 °F /  -11.8 °C 10.1 °F /  -12.2 °C 1015.5 in /  34384.8 hPa West 11.1 mph /  17.9 km/h 20.9 mph /  33.6 km/h 96 % 1.0 in /  25.4 mm
04:14 10.7 °F /  -11.8 °C 10.1 °F /  -12.2 °C 1015.5 in /  34384.8 hPa WSW 24.1 mph /  38.8 km/h 30.6 mph /  49.2 km/h 96 % 1.3 in /  33.02 mm
04:20 10.7 °F /  -11.8 °C 10.1 °F /  -12.2 °C 1015.5 in /  34384.8 hPa West 24.1 mph /  38.8 km/h 24.1 mph /  38.8 km/h 96 % 1.3 in /  33.02 mm
04:32 10.8 °F /  -11.8 °C 10.2 °F /  -12.1 °C 1015.8 in /  34395 hPa West 16.3 mph /  26.2 km/h 27.4 mph /  44.1 km/h 96 % 1.3 in /  33.02 mm
04:38 10.8 °F /  -11.8 °C 10.2 °F /  -12.1 °C 1015.8 in /  34395 hPa WSW 9.7 mph /  15.6 km/h 22.5 mph /  36.2 km/h 96 % 1.0 in /  25.4 mm
04:50 10.8 °F /  -11.8 °C 10.2 °F /  -12.1 °C 1015.5 in /  34384.8 hPa West 16.3 mph /  26.2 km/h 24.1 mph /  38.8 km/h 96 % 0.8 in /  20.32 mm
04:56 10.8 °F /  -11.8 °C 10.2 °F /  -12.1 °C 1015.5 in /  34384.8 hPa WSW 16.3 mph /  26.2 km/h 29.0 mph /  46.7 km/h 96 % 0.8 in /  20.32 mm
05:02 10.9 °F /  -11.7 °C 10.3 °F /  -12.1 °C 1015.8 in /  34395 hPa West 17.7 mph /  28.5 km/h 29.0 mph /  46.7 km/h 96 % 0.5 in /  12.7 mm
05:08 10.9 °F /  -11.7 °C 10.3 °F /  -12.1 °C 1015.8 in /  34395 hPa West 11.1 mph /  17.9 km/h 25.7 mph /  41.4 km/h 96 % 0.5 in /  12.7 mm
05:14 10.9 °F /  -11.7 °C 10.3 °F /  -12.1 °C 1015.8 in /  34395 hPa WSW 11.1 mph /  17.9 km/h 20.9 mph /  33.6 km/h 96 % 0.5 in /  12.7 mm
05:20 10.9 °F /  -11.7 °C 10.3 °F /  -12.1 °C 1015.8 in /  34395 hPa West 14.3 mph /  23 km/h 29.0 mph /  46.7 km/h 96 % 0.5 in /  12.7 mm
05:33 10.9 °F /  -11.7 °C 10.3 °F /  -12.1 °C 1015.5 in /  34384.8 hPa SW 11.1 mph /  17.9 km/h 27.4 mph /  44.1 km/h 96 % 0.3 in /  7.62 mm
05:39 10.9 °F /  -11.7 °C 10.3 °F /  -12.1 °C 1015.5 in /  34384.8 hPa West 20.9 mph /  33.6 km/h 25.7 mph /  41.4 km/h 96 % 0.3 in /  7.62 mm
05:45 10.9 °F /  -11.7 °C 10.3 °F /  -12.1 °C 1015.5 in /  34384.8 hPa WSW 19.5 mph /  31.4 km/h 20.9 mph /  33.6 km/h 96 % 0.0 in /  0 mm
05:51 10.9 °F /  -11.7 °C 10.3 °F /  -12.1 °C 1015.8 in /  34395 hPa WSW 20.9 mph /  33.6 km/h 20.9 mph /  33.6 km/h 96 % 0.0 in /  0 mm
05:57 10.8 °F /  -11.8 °C 10.2 °F /  -12.1 °C 1015.5 in /  34384.8 hPa SW 17.7 mph /  28.5 km/h 24.1 mph /  38.8 km/h 96 % 0.3 in /  7.62 mm
06:03 10.8 °F /  -11.8 °C 10.2 °F /  -12.1 °C 1015.5 in /  34384.8 hPa WSW 14.3 mph /  23 km/h 17.7 mph /  28.5 km/h 96 % 0.3 in /  7.62 mm
06:09 10.8 °F /  -11.8 °C 10.2 °F /  -12.1 °C 1015.5 in /  34384.8 hPa West 11.1 mph /  17.9 km/h 22.5 mph /  36.2 km/h 96 % 0.3 in /  7.62 mm
06:15 10.8 °F /  -11.8 °C 10.3 °F /  -12.1 °C 1015.1 in /  34371.3 hPa WSW 19.5 mph /  31.4 km/h 25.7 mph /  41.4 km/h 97 % 0.3 in /  7.62 mm
06:21 10.8 °F /  -11.8 °C 10.3 °F /  -12.1 °C 1015.5 in /  34384.8 hPa SW 17.7 mph /  28.5 km/h 29.0 mph /  46.7 km/h 97 % 0.3 in /  7.62 mm
06:27 10.9 °F /  -11.7 °C 10.4 °F /  -12 °C 1015.5 in /  34384.8 hPa SW 19.5 mph /  31.4 km/h 25.7 mph /  41.4 km/h 97 % 0.3 in /  7.62 mm
06:33 10.9 °F /  -11.7 °C 10.3 °F /  -12.1 °C 1015.5 in /  34384.8 hPa West 16.3 mph /  26.2 km/h 37.0 mph /  59.5 km/h 96 % 0.3 in /  7.62 mm
06:39 10.9 °F /  -11.7 °C 10.3 °F /  -12.1 °C 1015.5 in /  34384.8 hPa West 22.7 mph /  36.5 km/h 22.7 mph /  36.5 km/h 96 % 0.3 in /  7.62 mm
06:45 10.9 °F /  -11.7 °C 10.3 °F /  -12.1 °C 1015.5 in /  34384.8 hPa West 19.5 mph /  31.4 km/h 27.4 mph /  44.1 km/h 96 % 0.3 in /  7.62 mm
06:51 10.9 °F /  -11.7 °C 10.3 °F /  -12.1 °C 1015.5 in /  34384.8 hPa WSW 16.3 mph /  26.2 km/h 20.9 mph /  33.6 km/h 96 % 0.5 in /  12.7 mm
07:03 10.9 °F /  -11.7 °C 10.3 °F /  -12.1 °C 1015.1 in /  34371.3 hPa WSW 7.9 mph /  12.7 km/h 25.7 mph /  41.4 km/h 96 % 0.3 in /  7.62 mm
07:09 10.9 °F /  -11.7 °C 10.3 °F /  -12.1 °C 1015.1 in /  34371.3 hPa SW 11.1 mph /  17.9 km/h 20.9 mph /  33.6 km/h 96 % 0.5 in /  12.7 mm
07:15 10.9 °F /  -11.7 °C 10.3 °F /  -12.1 °C 1015.1 in /  34371.3 hPa WSW 16.3 mph /  26.2 km/h 27.4 mph /  44.1 km/h 96 % 0.5 in /  12.7 mm
07:21 10.9 °F /  -11.7 °C 10.3 °F /  -12.1 °C 1015.1 in /  34371.3 hPa SSW 13.0 mph /  20.9 km/h 25.7 mph /  41.4 km/h 96 % 0.5 in /  12.7 mm
07:27 10.9 °F /  -11.7 °C 10.3 °F /  -12.1 °C 1015.1 in /  34371.3 hPa West 16.3 mph /  26.2 km/h 27.4 mph /  44.1 km/h 96 % 0.5 in /  12.7 mm
07:39 10.9 °F /  -11.7 °C 10.3 °F /  -12.1 °C 1014.8 in /  34361.1 hPa West 22.7 mph /  36.5 km/h 33.8 mph /  54.4 km/h 96 % 0.5 in /  12.7 mm
07:45 10.9 °F /  -11.7 °C 10.3 °F /  -12.1 °C 1015.1 in /  34371.3 hPa WSW 7.9 mph /  12.7 km/h 24.1 mph /  38.8 km/h 96 % 0.5 in /  12.7 mm
07:51 10.9 °F /  -11.7 °C 10.3 °F /  -12.1 °C 1015.1 in /  34371.3 hPa WSW 25.9 mph /  41.7 km/h 27.4 mph /  44.1 km/h 96 % 0.5 in /  12.7 mm
07:57 11.0 °F /  -11.7 °C 10.4 °F /  -12 °C 1014.8 in /  34361.1 hPa WSW 16.3 mph /  26.2 km/h 25.7 mph /  41.4 km/h 96 % 0.5 in /  12.7 mm
08:09 11.0 °F /  -11.7 °C 10.4 °F /  -12 °C 1014.8 in /  34361.1 hPa WSW 13.0 mph /  20.9 km/h 30.6 mph /  49.2 km/h 96 % 0.3 in /  7.62 mm
08:15 11.0 °F /  -11.7 °C 10.4 °F /  -12 °C 1015.1 in /  34371.3 hPa West 19.5 mph /  31.4 km/h 29.0 mph /  46.7 km/h 96 % 0.3 in /  7.62 mm
08:21 11.0 °F /  -11.7 °C 10.4 °F /  -12 °C 1014.8 in /  34361.1 hPa West 22.7 mph /  36.5 km/h 33.8 mph /  54.4 km/h 96 % 0.3 in /  7.62 mm
08:27 11.0 °F /  -11.7 °C 10.4 °F /  -12 °C 1014.8 in /  34361.1 hPa WSW 22.7 mph /  36.5 km/h 40.2 mph /  64.7 km/h 96 % 0.3 in /  7.62 mm
08:33 11.0 °F /  -11.7 °C 10.4 °F /  -12 °C 1014.8 in /  34361.1 hPa West 6.4 mph /  10.3 km/h 29.0 mph /  46.7 km/h 96 % 0.3 in /  7.62 mm
08:39 11.0 °F /  -11.7 °C 10.4 °F /  -12 °C 1014.8 in /  34361.1 hPa SW 27.4 mph /  44.1 km/h 35.4 mph /  57 km/h 96 % 0.3 in /  7.62 mm
08:45 11.0 °F /  -11.7 °C 10.4 °F /  -12 °C 1014.8 in /  34361.1 hPa WSW 24.1 mph /  38.8 km/h 25.7 mph /  41.4 km/h 96 % 0.0 in /  0 mm
08:51 11.0 °F /  -11.7 °C 10.4 °F /  -12 °C 1014.8 in /  34361.1 hPa SW 14.3 mph /  23 km/h 30.6 mph /  49.2 km/h 96 % 0.3 in /  7.62 mm
08:57 11.0 °F /  -11.7 °C 10.4 °F /  -12 °C 1014.8 in /  34361.1 hPa WSW 24.1 mph /  38.8 km/h 37.0 mph /  59.5 km/h 96 % 0.3 in /  7.62 mm
09:03 11.0 °F /  -11.7 °C 10.4 °F /  -12 °C 1014.8 in /  34361.1 hPa West 16.3 mph /  26.2 km/h 29.0 mph /  46.7 km/h 96 % 0.3 in /  7.62 mm
09:09 11.0 °F /  -11.7 °C 10.4 °F /  -12 °C 1014.4 in /  34347.6 hPa WSW 16.3 mph /  26.2 km/h 35.4 mph /  57 km/h 96 % 0.3 in /  7.62 mm
09:15 11.0 °F /  -11.7 °C 10.4 °F /  -12 °C 1014.4 in /  34347.6 hPa SW 30.6 mph /  49.2 km/h 38.6 mph /  62.1 km/h 96 % 0.3 in /  7.62 mm
09:21 11.0 °F /  -11.7 °C 10.4 °F /  -12 °C 1014.4 in /  34347.6 hPa WSW 17.7 mph /  28.5 km/h 35.4 mph /  57 km/h 96 % 0.3 in /  7.62 mm
09:33 11.0 °F /  -11.7 °C 10.4 °F /  -12 °C 1014.4 in /  34347.6 hPa WSW 19.5 mph /  31.4 km/h 33.8 mph /  54.4 km/h 96 % 0.3 in /  7.62 mm
09:39 11.0 °F /  -11.7 °C 10.4 °F /  -12 °C 1014.4 in /  34347.6 hPa WSW 28.8 mph /  46.3 km/h 40.2 mph /  64.7 km/h 96 % 0.3 in /  7.62 mm
09:45 11.0 °F /  -11.7 °C 10.4 °F /  -12 °C 1014.4 in /  34347.6 hPa West 28.8 mph /  46.3 km/h 33.8 mph /  54.4 km/h 96 % 0.3 in /  7.62 mm
09:51 11.1 °F /  -11.6 °C 10.5 °F /  -11.9 °C 1014.4 in /  34347.6 hPa WSW 17.7 mph /  28.5 km/h 33.8 mph /  54.4 km/h 96 % 0.0 in /  0 mm
10:03 11.1 °F /  -11.6 °C 10.5 °F /  -11.9 °C 1014.4 in /  34347.6 hPa West 25.9 mph /  41.7 km/h 43.4 mph /  69.8 km/h 96 % 0.3 in /  7.62 mm
10:15 11.1 °F /  -11.6 °C 10.5 °F /  -11.9 °C 1014.1 in /  34337.4 hPa SW 20.9 mph /  33.6 km/h 43.4 mph /  69.8 km/h 96 % 0.3 in /  7.62 mm
10:21 11.0 °F /  -11.7 °C 10.4 °F /  -12 °C 1013.8 in /  34327.3 hPa WSW 30.6 mph /  49.2 km/h 48.3 mph /  77.7 km/h 96 % 0.3 in /  7.62 mm
10:27 11.0 °F /  -11.7 °C 10.4 °F /  -12 °C 1013.8 in /  34327.3 hPa WSW 22.7 mph /  36.5 km/h 33.8 mph /  54.4 km/h 96 % 0.3 in /  7.62 mm
10:33 11.0 °F /  -11.7 °C 10.4 °F /  -12 °C 1013.8 in /  34327.3 hPa SW 22.7 mph /  36.5 km/h 40.2 mph /  64.7 km/h 96 % 0.3 in /  7.62 mm
10:39 11.0 °F /  -11.7 °C 10.4 °F /  -12 °C 1013.8 in /  34327.3 hPa SW 35.2 mph /  56.6 km/h 40.2 mph /  64.7 km/h 96 % 0.3 in /  7.62 mm
10:45 11.0 °F /  -11.7 °C 10.2 °F /  -12.1 °C 1013.8 in /  34327.3 hPa WSW 38.5 mph /  62 km/h 38.6 mph /  62.1 km/h 95 % 0.3 in /  7.62 mm
10:51 11.1 °F /  -11.6 °C 10.3 °F /  -12.1 °C 1014.1 in /  34337.4 hPa West 16.3 mph /  26.2 km/h 46.7 mph /  75.2 km/h 95 % 0.3 in /  7.62 mm
10:57 11.1 °F /  -11.6 °C 10.3 °F /  -12.1 °C 1014.1 in /  34337.4 hPa SW 35.2 mph /  56.6 km/h 37.0 mph /  59.5 km/h 95 % 0.5 in /  12.7 mm
11:03 11.0 °F /  -11.7 °C 10.2 °F /  -12.1 °C 1014.1 in /  34337.4 hPa WSW 19.5 mph /  31.4 km/h 33.8 mph /  54.4 km/h 95 % 0.5 in /  12.7 mm
11:09 11.0 °F /  -11.7 °C 10.2 °F /  -12.1 °C 1013.8 in /  34327.3 hPa SW 17.7 mph /  28.5 km/h 32.2 mph /  51.8 km/h 95 % 0.8 in /  20.32 mm
11:15 11.0 °F /  -11.7 °C 10.2 °F /  -12.1 °C 1013.8 in /  34327.3 hPa WSW 24.1 mph /  38.8 km/h 53.1 mph /  85.5 km/h 95 % 0.8 in /  20.32 mm
11:21 10.9 °F /  -11.7 °C 10.1 °F /  -12.2 °C 1013.8 in /  34327.3 hPa West 16.3 mph /  26.2 km/h 25.7 mph /  41.4 km/h 95 % 1.0 in /  25.4 mm
11:27 10.9 °F /  -11.7 °C 10.3 °F /  -12.1 °C 1013.8 in /  34327.3 hPa SW 32.0 mph /  51.5 km/h 32.2 mph /  51.8 km/h 96 % 1.3 in /  33.02 mm
11:39 10.9 °F /  -11.7 °C 10.3 °F /  -12.1 °C 1013.8 in /  34327.3 hPa West 20.9 mph /  33.6 km/h 33.8 mph /  54.4 km/h 96 % 1.5 in /  38.1 mm
11:45 10.9 °F /  -11.7 °C 10.3 °F /  -12.1 °C 1013.8 in /  34327.3 hPa WSW 19.5 mph /  31.4 km/h 43.4 mph /  69.8 km/h 96 % 1.5 in /  38.1 mm
11:51 11.0 °F /  -11.7 °C 10.4 °F /  -12 °C 1013.8 in /  34327.3 hPa WSW 30.6 mph /  49.2 km/h 41.8 mph /  67.3 km/h 96 % 1.5 in /  38.1 mm
11:57 11.0 °F /  -11.7 °C 10.4 °F /  -12 °C 1014.1 in /  34337.4 hPa WSW 30.6 mph /  49.2 km/h 40.2 mph /  64.7 km/h 96 % 1.0 in /  25.4 mm
12:03 11.0 °F /  -11.7 °C 10.4 °F /  -12 °C 1013.8 in /  34327.3 hPa WSW 19.5 mph /  31.4 km/h 32.2 mph /  51.8 km/h 96 % 1.0 in /  25.4 mm
12:09 11.1 °F /  -11.6 °C 10.5 °F /  -11.9 °C 1013.8 in /  34327.3 hPa West 11.1 mph /  17.9 km/h 22.5 mph /  36.2 km/h 96 % 0.8 in /  20.32 mm
12:15 11.1 °F /  -11.6 °C 10.5 °F /  -11.9 °C 1013.8 in /  34327.3 hPa WSW 17.7 mph /  28.5 km/h 33.8 mph /  54.4 km/h 96 % 1.0 in /  25.4 mm
12:21 11.2 °F /  -11.6 °C 10.6 °F /  -11.9 °C 1013.4 in /  34313.7 hPa WSW 20.9 mph /  33.6 km/h 37.0 mph /  59.5 km/h 96 % 0.8 in /  20.32 mm
12:27 11.2 °F /  -11.6 °C 10.4 °F /  -12 °C 1013.4 in /  34313.7 hPa WSW 27.4 mph /  44.1 km/h 32.2 mph /  51.8 km/h 95 % 0.5 in /  12.7 mm
12:33 11.3 °F /  -11.5 °C 10.7 °F /  -11.8 °C 1013.4 in /  34313.7 hPa SW 13.0 mph /  20.9 km/h 25.7 mph /  41.4 km/h 96 % 0.5 in /  12.7 mm
12:39 11.3 °F /  -11.5 °C 10.7 °F /  -11.8 °C 1013.4 in /  34313.7 hPa WSW 27.4 mph /  44.1 km/h 37.0 mph /  59.5 km/h 96 % 0.8 in /  20.32 mm
12:51 11.7 °F /  -11.3 °C 10.4 °F /  -12 °C 1013.4 in /  34313.7 hPa West 13.0 mph /  20.9 km/h 43.4 mph /  69.8 km/h 92 % 0.5 in /  12.7 mm
13:03 11.9 °F /  -11.2 °C 10.5 °F /  -11.9 °C 1013.4 in /  34313.7 hPa West 16.3 mph /  26.2 km/h 33.8 mph /  54.4 km/h 91 % 0.5 in /  12.7 mm
13:09 11.8 °F /  -11.2 °C 10.4 °F /  -12 °C 1013.8 in /  34327.3 hPa WSW 14.3 mph /  23 km/h 27.4 mph /  44.1 km/h 91 % 0.5 in /  12.7 mm
13:15 11.7 °F /  -11.3 °C 10.3 °F /  -12.1 °C 1013.4 in /  34313.7 hPa West 24.1 mph /  38.8 km/h 38.6 mph /  62.1 km/h 91 % 0.5 in /  12.7 mm
13:21 11.9 °F /  -11.2 °C 10.3 °F /  -12.1 °C 1013.4 in /  34313.7 hPa West 25.9 mph /  41.7 km/h 29.0 mph /  46.7 km/h 90 % 0.5 in /  12.7 mm
13:27 12.2 °F /  -11 °C 10.3 °F /  -12.1 °C 1013.4 in /  34313.7 hPa NW 14.3 mph /  23 km/h 29.0 mph /  46.7 km/h 88 % 0.5 in /  12.7 mm
13:33 12.4 °F /  -10.9 °C 10.3 °F /  -12.1 °C 1013.4 in /  34313.7 hPa WSW 19.5 mph /  31.4 km/h 32.2 mph /  51.8 km/h 87 % 0.3 in /  7.62 mm
13:39 12.6 °F /  -10.8 °C 10.3 °F /  -12.1 °C 1013.4 in /  34313.7 hPa NW 16.3 mph /  26.2 km/h 33.8 mph /  54.4 km/h 86 % 0.0 in /  0 mm
13:45 12.7 °F /  -10.7 °C 10.4 °F /  -12 °C 1013.4 in /  34313.7 hPa WSW 22.7 mph /  36.5 km/h 29.0 mph /  46.7 km/h 86 % 0.3 in /  7.62 mm
13:51 12.8 °F /  -10.7 °C 10.0 °F /  -12.2 °C 1013.4 in /  34313.7 hPa WNW 17.7 mph /  28.5 km/h 35.4 mph /  57 km/h 83 % 0.3 in /  7.62 mm
13:57 13.0 °F /  -10.6 °C 10.2 °F /  -12.1 °C 1013.4 in /  34313.7 hPa West 25.9 mph /  41.7 km/h 30.6 mph /  49.2 km/h 83 % 0.3 in /  7.62 mm
14:03 13.1 °F /  -10.5 °C 9.7 °F /  -12.4 °C 1013.4 in /  34313.7 hPa West 24.1 mph /  38.8 km/h 38.6 mph /  62.1 km/h 80 % 0.3 in /  7.62 mm
14:09 13.2 °F /  -10.4 °C 9.4 °F /  -12.6 °C 1013.4 in /  34313.7 hPa West 27.4 mph /  44.1 km/h 38.6 mph /  62.1 km/h 78 % 0.3 in /  7.62 mm
14:21 13.1 °F /  -10.5 °C 9.4 °F /  -12.6 °C 1013.4 in /  34313.7 hPa WSW 25.9 mph /  41.7 km/h 46.7 mph /  75.2 km/h 78 % 0.3 in /  7.62 mm
14:45 12.6 °F /  -10.8 °C 10.1 °F /  -12.2 °C 1013.8 in /  34327.3 hPa West 24.1 mph /  38.8 km/h 35.4 mph /  57 km/h 85 % 0.0 in /  0 mm
15:03 12.0 °F /  -11.1 °C 10.2 °F /  -12.1 °C 1014.1 in /  34337.4 hPa WSW 16.3 mph /  26.2 km/h 25.7 mph /  41.4 km/h 89 % 0.0 in /  0 mm
15:09 11.8 °F /  -11.2 °C 10.4 °F /  -12 °C 1014.1 in /  34337.4 hPa West 19.5 mph /  31.4 km/h 29.0 mph /  46.7 km/h 91 % 0.0 in /  0 mm
15:15 11.6 °F /  -11.3 °C 10.3 °F /  -12.1 °C 1014.1 in /  34337.4 hPa WSW 27.4 mph /  44.1 km/h 29.0 mph /  46.7 km/h 92 % 0.0 in /  0 mm
15:21 11.6 °F /  -11.3 °C 10.3 °F /  -12.1 °C 1014.4 in /  34347.6 hPa WSW 16.3 mph /  26.2 km/h 24.1 mph /  38.8 km/h 92 % 0.0 in /  0 mm
15:27 11.6 °F /  -11.3 °C 10.3 °F /  -12.1 °C 1014.4 in /  34347.6 hPa WSW 20.9 mph /  33.6 km/h 20.9 mph /  33.6 km/h 92 % 0.0 in /  0 mm
15:33 11.6 °F /  -11.3 °C 10.3 °F /  -12.1 °C 1014.4 in /  34347.6 hPa West 13.0 mph /  20.9 km/h 22.5 mph /  36.2 km/h 92 % 0.0 in /  0 mm
15:39 11.6 °F /  -11.3 °C 10.3 °F /  -12.1 °C 1014.8 in /  34361.1 hPa West 11.1 mph /  17.9 km/h 20.9 mph /  33.6 km/h 92 % 0.0 in /  0 mm
15:45 11.6 °F /  -11.3 °C 10.3 °F /  -12.1 °C 1014.8 in /  34361.1 hPa West 14.3 mph /  23 km/h 30.6 mph /  49.2 km/h 92 % 0.0 in /  0 mm
15:51 11.6 °F /  -11.3 °C 10.3 °F /  -12.1 °C 1015.1 in /  34371.3 hPa West 11.1 mph /  17.9 km/h 19.3 mph /  31.1 km/h 92 % 0.0 in /  0 mm
15:57 11.6 °F /  -11.3 °C 10.3 °F /  -12.1 °C 1015.1 in /  34371.3 hPa West 16.3 mph /  26.2 km/h 24.1 mph /  38.8 km/h 92 % 0.0 in /  0 mm
16:03 11.6 °F /  -11.3 °C 10.3 °F /  -12.1 °C 1015.1 in /  34371.3 hPa West 16.3 mph /  26.2 km/h 22.5 mph /  36.2 km/h 92 % 0.0 in /  0 mm
16:09 11.5 °F /  -11.4 °C 10.2 °F /  -12.1 °C 1015.5 in /  34384.8 hPa West 13.0 mph /  20.9 km/h 20.9 mph /  33.6 km/h 92 % 0.0 in /  0 mm
16:15 11.4 °F /  -11.4 °C 10.3 °F /  -12.1 °C 1015.5 in /  34384.8 hPa WNW 13.0 mph /  20.9 km/h 22.5 mph /  36.2 km/h 93 % 0.0 in /  0 mm
16:21 11.3 °F /  -11.5 °C 10.2 °F /  -12.1 °C 1015.5 in /  34384.8 hPa West 19.5 mph /  31.4 km/h 22.5 mph /  36.2 km/h 93 % 0.0 in /  0 mm
16:27 11.3 °F /  -11.5 °C 10.4 °F /  -12 °C 1015.5 in /  34384.8 hPa West 11.1 mph /  17.9 km/h 20.9 mph /  33.6 km/h 94 % 0.0 in /  0 mm
16:33 11.2 °F /  -11.6 °C 10.3 °F /  -12.1 °C 1015.8 in /  34395 hPa West 13.0 mph /  20.9 km/h 19.3 mph /  31.1 km/h 94 % 0.0 in /  0 mm
16:39 11.2 °F /  -11.6 °C 10.3 °F /  -12.1 °C 1015.8 in /  34395 hPa WSW 14.3 mph /  23 km/h 19.3 mph /  31.1 km/h 94 % 0.0 in /  0 mm
16:45 11.2 °F /  -11.6 °C 10.3 °F /  -12.1 °C 1016.1 in /  34405.1 hPa West 11.1 mph /  17.9 km/h 20.9 mph /  33.6 km/h 94 % 0.0 in /  0 mm
16:51 11.2 °F /  -11.6 °C 10.3 °F /  -12.1 °C 1016.1 in /  34405.1 hPa West 13.0 mph /  20.9 km/h 17.7 mph /  28.5 km/h 94 % 0.0 in /  0 mm
16:57 11.2 °F /  -11.6 °C 10.3 °F /  -12.1 °C 1016.1 in /  34405.1 hPa NW 3.2 mph /  5.1 km/h 22.5 mph /  36.2 km/h 94 % 0.0 in /  0 mm
17:03 11.2 °F /  -11.6 °C 10.3 °F /  -12.1 °C 1016.5 in /  34418.7 hPa West 13.0 mph /  20.9 km/h 20.9 mph /  33.6 km/h 94 % 0.0 in /  0 mm
17:09 11.2 °F /  -11.6 °C 10.4 °F /  -12 °C 1016.8 in /  34428.8 hPa NW 13.0 mph /  20.9 km/h 16.1 mph /  25.9 km/h 95 % 0.0 in /  0 mm
17:15 11.2 °F /  -11.6 °C 10.3 °F /  -12.1 °C 1016.8 in /  34428.8 hPa WNW 7.9 mph /  12.7 km/h 20.9 mph /  33.6 km/h 94 % 0.3 in /  7.62 mm
17:21 11.3 °F /  -11.5 °C 10.4 °F /  -12 °C 1016.8 in /  34428.8 hPa WNW 19.5 mph /  31.4 km/h 20.9 mph /  33.6 km/h 94 % 0.3 in /  7.62 mm
17:27 11.4 °F /  -11.4 °C 10.3 °F /  -12.1 °C 1017.2 in /  34442.4 hPa WNW 13.0 mph /  20.9 km/h 20.9 mph /  33.6 km/h 93 % 0.3 in /  7.62 mm
17:33 11.4 °F /  -11.4 °C 10.3 °F /  -12.1 °C 1017.5 in /  34452.6 hPa West 13.0 mph /  20.9 km/h 20.9 mph /  33.6 km/h 93 % 0.3 in /  7.62 mm
17:39 11.3 °F /  -11.5 °C 10.2 °F /  -12.1 °C 1017.8 in /  34462.7 hPa NW 11.1 mph /  17.9 km/h 25.7 mph /  41.4 km/h 93 % 0.5 in /  12.7 mm
17:45 11.1 °F /  -11.6 °C 9.8 °F /  -12.3 °C 1017.8 in /  34462.7 hPa WNW 19.5 mph /  31.4 km/h 29.0 mph /  46.7 km/h 92 % 0.5 in /  12.7 mm
17:51 11.0 °F /  -11.7 °C 9.6 °F /  -12.4 °C 1018.2 in /  34476.3 hPa NW 19.5 mph /  31.4 km/h 25.7 mph /  41.4 km/h 91 % 0.5 in /  12.7 mm
17:57 10.9 °F /  -11.7 °C 9.5 °F /  -12.5 °C 1018.5 in /  34486.4 hPa NNW 16.3 mph /  26.2 km/h 33.8 mph /  54.4 km/h 91 % 0.5 in /  12.7 mm
18:03 10.7 °F /  -11.8 °C 9.3 °F /  -12.6 °C 1018.8 in /  34496.6 hPa NNW 35.4 mph /  57 km/h 35.4 mph /  57 km/h 91 % 0.5 in /  12.7 mm
18:09 10.4 °F /  -12 °C 9.0 °F /  -12.8 °C 1018.8 in /  34496.6 hPa NNW 13.0 mph /  20.9 km/h 33.8 mph /  54.4 km/h 91 % 0.5 in /  12.7 mm
18:15 10.3 °F /  -12.1 °C 8.7 °F /  -12.9 °C 1019.2 in /  34510.1 hPa NNW 27.4 mph /  44.1 km/h 27.4 mph /  44.1 km/h 90 % 0.3 in /  7.62 mm
18:21 10.3 °F /  -12.1 °C 8.6 °F /  -13 °C 1019.2 in /  34510.1 hPa NW 9.7 mph /  15.6 km/h 25.7 mph /  41.4 km/h 89 % 0.3 in /  7.62 mm
18:27 10.1 °F /  -12.2 °C 8.2 °F /  -13.2 °C 1019.5 in /  34520.3 hPa NNW 16.3 mph /  26.2 km/h 27.4 mph /  44.1 km/h 88 % 0.3 in /  7.62 mm
18:33 9.9 °F /  -12.3 °C 8.0 °F /  -13.3 °C 1019.5 in /  34520.3 hPa NW 7.9 mph /  12.7 km/h 27.4 mph /  44.1 km/h 88 % 0.3 in /  7.62 mm
18:39 9.8 °F /  -12.3 °C 7.9 °F /  -13.4 °C 1019.5 in /  34520.3 hPa NW 9.7 mph /  15.6 km/h 30.6 mph /  49.2 km/h 88 % 0.0 in /  0 mm
18:43 9.8 °F /  -12.3 °C 7.9 °F /  -13.4 °C 1019.5 in /  34520.3 hPa NNW 16.3 mph /  26.2 km/h 30.6 mph /  49.2 km/h 88 % 0.0 in /  0 mm
18:55 9.7 °F /  -12.4 °C 7.8 °F /  -13.4 °C 1020.2 in /  34544 hPa WNW 9.7 mph /  15.6 km/h 12.9 mph /  20.8 km/h 88 % 0.0 in /  0 mm
19:15 9.6 °F /  -12.4 °C 7.5 °F /  -13.6 °C 1020.9 in /  34567.7 hPa NW 25.9 mph /  41.7 km/h 25.9 mph /  41.7 km/h 87 % 0.0 in /  0 mm
19:36 9.1 °F /  -12.7 °C 7.1 °F /  -13.8 °C 1021.2 in /  34577.8 hPa NNW 7.9 mph /  12.7 km/h 14.5 mph /  23.3 km/h 87 % 0.0 in /  0 mm
20:50 8.9 °F /  -12.8 °C 6.3 °F /  -14.3 °C 1023.6 in /  34659.1 hPa NW 16.3 mph /  26.2 km/h 16.3 mph /  26.2 km/h 84 % 0.0 in /  0 mm
21:32 8.6 °F /  -13 °C 6.0 °F /  -14.4 °C 1024.3 in /  34682.8 hPa WNW 7.9 mph /  12.7 km/h 11.3 mph /  18.2 km/h 84 % 0.0 in /  0 mm
21:44 8.6 °F /  -13 °C 6.0 °F /  -14.4 °C 1024.3 in /  34682.8 hPa WNW 4.7 mph /  7.6 km/h 6.4 mph /  10.3 km/h 84 % 0.0 in /  0 mm
21:52 8.6 °F /  -13 °C 6.0 °F /  -14.4 °C 1024.6 in /  34693 hPa WNW 3.2 mph /  5.1 km/h 6.4 mph /  10.3 km/h 84 % 0.0 in /  0 mm
22:00 8.6 °F /  -13 °C 6.0 °F /  -14.4 °C 1024.6 in /  34693 hPa WNW 4.7 mph /  7.6 km/h 6.4 mph /  10.3 km/h 84 % 0.0 in /  0 mm
22:02 8.6 °F /  -13 °C 5.9 °F /  -14.5 °C 1024.6 in /  34693 hPa WNW 3.2 mph /  5.1 km/h 6.4 mph /  10.3 km/h 83 % 0.0 in /  0 mm
22:08 8.5 °F /  -13.1 °C 6.0 °F /  -14.4 °C 1024.6 in /  34693 hPa West 1.4 mph /  2.3 km/h 6.4 mph /  10.3 km/h 84 % 0.0 in /  0 mm
22:16 8.4 °F /  -13.1 °C 5.9 °F /  -14.5 °C 1024.6 in /  34693 hPa Calm     84 % 0.0 in /  0 mm
22:20 8.4 °F /  -13.1 °C 5.9 °F /  -14.5 °C 1024.9 in /  34703.1 hPa WSW 1.4 mph /  2.3 km/h 1.6 mph /  2.6 km/h 84 % 0.0 in /  0 mm
22:28 8.4 °F /  -13.1 °C 6.0 °F /  -14.4 °C 1024.9 in /  34703.1 hPa Calm     85 % 0.0 in /  0 mm
22:37 8.3 °F /  -13.2 °C 5.9 °F /  -14.5 °C 1024.9 in /  34703.1 hPa WSW 1.4 mph /  2.3 km/h 3.2 mph /  5.1 km/h 85 % 0.0 in /  0 mm
22:42 8.3 °F /  -13.2 °C 6.1 °F /  -14.4 °C 1024.9 in /  34703.1 hPa WSW 1.4 mph /  2.3 km/h 4.8 mph /  7.7 km/h 86 % 0.0 in /  0 mm
22:48 8.3 °F /  -13.2 °C 6.1 °F /  -14.4 °C 1024.9 in /  34703.1 hPa SW 4.7 mph /  7.6 km/h 4.8 mph /  7.7 km/h 86 % 0.0 in /  0 mm
22:56 8.3 °F /  -13.2 °C 6.1 °F /  -14.4 °C 1024.9 in /  34703.1 hPa WSW 6.4 mph /  10.3 km/h 9.7 mph /  15.6 km/h 86 % 0.0 in /  0 mm
23:02 8.2 °F /  -13.2 °C 6.0 °F /  -14.4 °C 1024.9 in /  34703.1 hPa WSW 6.4 mph /  10.3 km/h 8.0 mph /  12.9 km/h 86 % 0.0 in /  0 mm
23:04 8.2 °F /  -13.2 °C 6.0 °F /  -14.4 °C 1024.9 in /  34703.1 hPa SW 4.7 mph /  7.6 km/h 6.4 mph /  10.3 km/h 86 % 0.0 in /  0 mm
23:10 8.2 °F /  -13.2 °C 6.2 °F /  -14.3 °C 1024.9 in /  34703.1 hPa SW 3.2 mph /  5.1 km/h 6.4 mph /  10.3 km/h 87 % 0.0 in /  0 mm
23:16 8.2 °F /  -13.2 °C 6.3 °F /  -14.3 °C 1025.3 in /  34716.7 hPa SW 1.4 mph /  2.3 km/h 3.2 mph /  5.1 km/h 88 % 0.0 in /  0 mm
23:22 8.2 °F /  -13.2 °C 6.5 °F /  -14.2 °C 1025.3 in /  34716.7 hPa SW 4.7 mph /  7.6 km/h 11.3 mph /  18.2 km/h 89 % 0.0 in /  0 mm
23:28 8.2 °F /  -13.2 °C 6.5 °F /  -14.2 °C 1025.3 in /  34716.7 hPa West 3.2 mph /  5.1 km/h 11.3 mph /  18.2 km/h 89 % 0.0 in /  0 mm
23:34 8.1 °F /  -13.3 °C 6.6 °F /  -14.1 °C 1025.3 in /  34716.7 hPa WSW 4.7 mph /  7.6 km/h 9.7 mph /  15.6 km/h 90 % 0.0 in /  0 mm
23:40 8.1 °F /  -13.3 °C 6.7 °F /  -14.1 °C 1025.3 in /  34716.7 hPa SW 4.7 mph /  7.6 km/h 12.9 mph /  20.8 km/h 91 % 0.0 in /  0 mm
23:46 8.1 °F /  -13.3 °C 6.7 °F /  -14.1 °C 1025.3 in /  34716.7 hPa WSW 3.2 mph /  5.1 km/h 8.0 mph /  12.9 km/h 91 % 0.0 in /  0 mm
23:52 8.0 °F /  -13.3 °C 6.6 °F /  -14.1 °C 1025.6 in /  34726.8 hPa West 4.7 mph /  7.6 km/h 8.0 mph /  12.9 km/h 91 % 0.0 in /  0 mm
23:58 8.0 °F /  -13.3 °C 6.8 °F /  -14 °C 1025.6 in /  34726.8 hPa SW 3.2 mph /  5.1 km/h 8.0 mph /  12.9 km/h 92 % 0.0 in /  0 mm
Meteo18
Compliments of Weather Underground - 4 mb

Script developed by  Jim McMurry - jmcmurry@mwt.net Adapted for the template by  Wim van der Kuil - Leuven-Template.eu

You find our weather info also at:

European Weather Network

Weather Underground

Equipment we use:

Weather-station
Davis Vue

Weather-program
Meteobridge

Weather-server
Raspberry PI 2 B+

Provider
1 and 1

Davis Vue

Meteobridge

Raspberry PI 2 B+

1 and 1